Salon-de-Provence (BA 701) Air Base

Airport
ICAO code: 
LFMY
Summary
ICAO Region: 
EUR
Territory: 
Location: 
, Provence-Alpes-Cote d'Azur
Serving: 
Salon
Elevation: 
195 ft
Coordinates: 
Aerial View: 
43° 36' 23.094" N, 5° 6' 33.3" E
Metar
Observation
LFMY 020400Z AUTO 00000KT 3200 1300 R16/1000U BR NSC 04/04 Q1003
Station
Salon
Date/Time
2021-12-02 04:00:00
Wind direction
Wind speed
00 kts
Lowest cloud amount
nil significant cloud
Temperature
16°C
Dew point
10°C
Humidity
67%
QNH
1003 hPa
Weather condition
n/a

Runways

Designator Length Width Surface Rops
9/27 0 0 UNK No/No
17L/35R 0 0 UNK No/No
17R/35L 0 0 UNK No/No
16/34 2001 45 CON No/No
Airport map: 
Aerial View: 

SKYbrary Partners:

Safety knowledge contributed by: